6XS5 weather

Cannon Aviation Airport
Edcouch, Texas, United States

Public forecast

Using degrees Fahrenheit for public forecast. Weather courtesy of forecast.io.

Closest aviation weather report (METAR) to Cannon Aviation Airport

Closest report is Mid Valley Airport, 7.9 nm (14.7 km) S. Retrieved 2019/10/21 09:35 UTC (0 seconds ago):

KTXW 210935Z AUTO 16004KT 10SM SCT008 SCT022 SCT034 24/22 A2970 RMK AO2 LTG DSNT E AND SE T02350223

Closest aviation forecast (TAF) to Cannon Aviation Airport

Closest forecast is Valley International Airport, 16.9 nm (31.2 km) ESE. Retrieved 2019/10/21 06:39 UTC (3 hours ago):

TAF KHRL 210537Z 2106/2206 15010KT P6SM -SHRA VCTS SCT015 OVC030CB TEMPO 2106/2110 VRB25G40KT 2SM TSRA BKN020CB FM211200 17009KT P6SM VCSH SCT015 OVC050 FM212000 31010KT P6SM BKN050 FM212300 36012KT P6SM FEW250